sensor_id;sensor_type;location;lat;lon;timestamp;P1;durP1;ratioP1;P2;durP2;ratioP2
8050;SDS011;4068;42.158;24.732;2023-07-28T00:01:33;5.47;;;4.10;;
8050;SDS011;4068;42.158;24.732;2023-07-28T00:03:58;6.90;;;4.68;;
8050;SDS011;4068;42.158;24.732;2023-07-28T00:06:24;5.70;;;4.47;;
8050;SDS011;4068;42.158;24.732;2023-07-28T00:08:49;4.70;;;4.30;;
8050;SDS011;4068;42.158;24.732;2023-07-28T00:11:15;6.00;;;4.70;;
8050;SDS011;4068;42.158;24.732;2023-07-28T00:13:41;5.85;;;4.40;;
8050;SDS011;4068;42.158;24.732;2023-07-28T00:16:08;6.20;;;4.70;;
8050;SDS011;4068;42.158;24.732;2023-07-28T00:18:34;5.10;;;4.60;;
8050;SDS011;4068;42.158;24.732;2023-07-28T00:21:00;4.70;;;4.30;;
8050;SDS011;4068;42.158;24.732;2023-07-28T00:23:25;5.03;;;4.53;;
8050;SDS011;4068;42.158;24.732;2023-07-28T00:25:51;7.10;;;4.63;;
8050;SDS011;4068;42.158;24.732;2023-07-28T00:28:16;6.25;;;4.50;;
8050;SDS011;4068;42.158;24.732;2023-07-28T00:30:42;4.78;;;4.30;;
8050;SDS011;4068;42.158;24.732;2023-07-28T00:33:07;4.85;;;4.45;;
8050;SDS011;4068;42.158;24.732;2023-07-28T00:35:33;5.13;;;4.72;;
8050;SDS011;4068;42.158;24.732;2023-07-28T00:37:58;4.97;;;4.50;;
8050;SDS011;4068;42.158;24.732;2023-07-28T00:40:24;5.03;;;4.40;;
8050;SDS011;4068;42.158;24.732;2023-07-28T00:42:49;5.40;;;4.85;;
8050;SDS011;4068;42.158;24.732;2023-07-28T00:45:15;5.35;;;4.60;;
8050;SDS011;4068;42.158;24.732;2023-07-28T00:47:40;4.80;;;4.43;;
8050;SDS011;4068;42.158;24.732;2023-07-28T00:50:07;8.52;;;4.80;;
8050;SDS011;4068;42.158;24.732;2023-07-28T00:52:35;4.95;;;4.38;;
8050;SDS011;4068;42.158;24.732;2023-07-28T00:55:01;5.60;;;4.32;;
8050;SDS011;4068;42.158;24.732;2023-07-28T00:57:26;5.05;;;3.95;;
8050;SDS011;4068;42.158;24.732;2023-07-28T00:59:52;4.90;;;4.43;;
8050;SDS011;4068;42.158;24.732;2023-07-28T01:02:18;4.65;;;4.18;;
8050;SDS011;4068;42.158;24.732;2023-07-28T01:04:44;4.75;;;4.25;;
8050;SDS011;4068;42.158;24.732;2023-07-28T01:07:14;5.30;;;4.80;;
8050;SDS011;4068;42.158;24.732;2023-07-28T01:09:57;5.35;;;4.57;;
8050;SDS011;4068;42.158;24.732;2023-07-28T01:12:30;5.38;;;4.88;;
8050;SDS011;4068;42.158;24.732;2023-07-28T01:14:55;5.55;;;4.88;;
8050;SDS011;4068;42.158;24.732;2023-07-28T01:17:21;5.45;;;4.95;;
8050;SDS011;4068;42.158;24.732;2023-07-28T01:19:49;6.95;;;4.85;;
8050;SDS011;4068;42.158;24.732;2023-07-28T01:24:55;6.28;;;4.85;;
8050;SDS011;4068;42.158;24.732;2023-07-28T01:27:41;6.57;;;4.97;;
8050;SDS011;4068;42.158;24.732;2023-07-28T01:30:11;5.63;;;4.70;;
8050;SDS011;4068;42.158;24.732;2023-07-28T01:32:36;5.60;;;4.90;;
8050;SDS011;4068;42.158;24.732;2023-07-28T01:35:02;5.38;;;4.90;;
8050;SDS011;4068;42.158;24.732;2023-07-28T01:37:28;5.53;;;4.88;;
8050;SDS011;4068;42.158;24.732;2023-07-28T01:39:54;5.43;;;4.93;;
8050;SDS011;4068;42.158;24.732;2023-07-28T01:42:22;6.65;;;4.80;;
8050;SDS011;4068;42.158;24.732;2023-07-28T01:44:47;7.20;;;4.75;;
8050;SDS011;4068;42.158;24.732;2023-07-28T01:47:13;4.63;;;4.22;;
8050;SDS011;4068;42.158;24.732;2023-07-28T01:49:39;4.95;;;4.55;;
8050;SDS011;4068;42.158;24.732;2023-07-28T01:52:04;6.35;;;4.40;;
8050;SDS011;4068;42.158;24.732;2023-07-28T01:54:29;4.53;;;4.15;;
8050;SDS011;4068;42.158;24.732;2023-07-28T01:56:55;4.60;;;4.20;;
8050;SDS011;4068;42.158;24.732;2023-07-28T01:59:20;4.55;;;4.15;;
8050;SDS011;4068;42.158;24.732;2023-07-28T02:01:46;5.00;;;4.60;;
8050;SDS011;4068;42.158;24.732;2023-07-28T02:04:12;4.82;;;4.30;;
8050;SDS011;4068;42.158;24.732;2023-07-28T02:06:37;4.50;;;4.20;;
8050;SDS011;4068;42.158;24.732;2023-07-28T02:09:03;4.82;;;4.43;;
8050;SDS011;4068;42.158;24.732;2023-07-28T02:11:28;5.63;;;4.03;;
8050;SDS011;4068;42.158;24.732;2023-07-28T02:13:54;6.50;;;4.20;;
8050;SDS011;4068;42.158;24.732;2023-07-28T02:16:19;4.90;;;4.50;;
8050;SDS011;4068;42.158;24.732;2023-07-28T02:18:45;5.57;;;4.10;;
8050;SDS011;4068;42.158;24.732;2023-07-28T02:21:10;7.25;;;5.03;;
8050;SDS011;4068;42.158;24.732;2023-07-28T02:23:36;6.25;;;4.57;;
8050;SDS011;4068;42.158;24.732;2023-07-28T02:26:01;5.88;;;4.43;;
8050;SDS011;4068;42.158;24.732;2023-07-28T02:28:27;6.35;;;4.68;;
8050;SDS011;4068;42.158;24.732;2023-07-28T02:30:53;4.93;;;4.53;;
8050;SDS011;4068;42.158;24.732;2023-07-28T02:33:18;10.73;;;4.72;;
8050;SDS011;4068;42.158;24.732;2023-07-28T02:35:44;6.03;;;5.07;;
8050;SDS011;4068;42.158;24.732;2023-07-28T02:38:09;6.22;;;5.05;;
8050;SDS011;4068;42.158;24.732;2023-07-28T02:40:35;5.88;;;5.30;;
8050;SDS011;4068;42.158;24.732;2023-07-28T02:43:00;5.57;;;5.05;;
8050;SDS011;4068;42.158;24.732;2023-07-28T02:45:25;6.75;;;4.80;;
8050;SDS011;4068;42.158;24.732;2023-07-28T02:47:51;8.82;;;5.13;;
8050;SDS011;4068;42.158;24.732;2023-07-28T02:50:17;6.18;;;4.47;;
8050;SDS011;4068;42.158;24.732;2023-07-28T02:52:42;5.38;;;4.88;;
8050;SDS011;4068;42.158;24.732;2023-07-28T02:55:08;10.10;;;5.43;;
8050;SDS011;4068;42.158;24.732;2023-07-28T02:57:33;5.30;;;4.78;;
8050;SDS011;4068;42.158;24.732;2023-07-28T02:59:59;6.00;;;4.95;;
8050;SDS011;4068;42.158;24.732;2023-07-28T03:02:24;7.80;;;5.40;;
8050;SDS011;4068;42.158;24.732;2023-07-28T03:04:50;6.93;;;5.55;;
8050;SDS011;4068;42.158;24.732;2023-07-28T03:07:15;11.35;;;5.80;;
8050;SDS011;4068;42.158;24.732;2023-07-28T03:09:41;5.82;;;5.10;;
8050;SDS011;4068;42.158;24.732;2023-07-28T03:12:07;5.82;;;5.22;;
8050;SDS011;4068;42.158;24.732;2023-07-28T03:14:32;5.50;;;4.80;;
8050;SDS011;4068;42.158;24.732;2023-07-28T03:16:58;7.70;;;5.22;;
8050;SDS011;4068;42.158;24.732;2023-07-28T03:19:23;6.10;;;5.05;;
8050;SDS011;4068;42.158;24.732;2023-07-28T03:21:49;5.43;;;4.60;;
8050;SDS011;4068;42.158;24.732;2023-07-28T03:24:14;5.65;;;5.00;;
8050;SDS011;4068;42.158;24.732;2023-07-28T03:26:39;7.85;;;4.88;;
8050;SDS011;4068;42.158;24.732;2023-07-28T03:29:05;5.22;;;4.72;;
8050;SDS011;4068;42.158;24.732;2023-07-28T03:31:30;7.70;;;4.88;;
8050;SDS011;4068;42.158;24.732;2023-07-28T03:33:56;5.25;;;4.75;;
8050;SDS011;4068;42.158;24.732;2023-07-28T03:36:21;10.13;;;4.55;;
8050;SDS011;4068;42.158;24.732;2023-07-28T03:38:47;7.25;;;5.80;;
8050;SDS011;4068;42.158;24.732;2023-07-28T03:41:12;12.32;;;6.55;;
8050;SDS011;4068;42.158;24.732;2023-07-28T03:43:38;7.30;;;5.85;;
8050;SDS011;4068;42.158;24.732;2023-07-28T03:46:05;9.23;;;6.00;;
8050;SDS011;4068;42.158;24.732;2023-07-28T03:48:30;5.70;;;5.20;;
8050;SDS011;4068;42.158;24.732;2023-07-28T03:50:55;8.57;;;5.95;;
8050;SDS011;4068;42.158;24.732;2023-07-28T03:53:21;9.10;;;5.78;;
8050;SDS011;4068;42.158;24.732;2023-07-28T03:55:46;9.40;;;6.00;;
8050;SDS011;4068;42.158;24.732;2023-07-28T03:58:12;8.45;;;6.30;;
8050;SDS011;4068;42.158;24.732;2023-07-28T04:00:37;11.60;;;6.45;;
8050;SDS011;4068;42.158;24.732;2023-07-28T04:03:03;8.50;;;6.88;;
8050;SDS011;4068;42.158;24.732;2023-07-28T04:05:28;11.63;;;7.10;;
8050;SDS011;4068;42.158;24.732;2023-07-28T04:07:53;12.32;;;7.93;;
8050;SDS011;4068;42.158;24.732;2023-07-28T04:10:19;13.82;;;8.60;;
8050;SDS011;4068;42.158;24.732;2023-07-28T04:12:44;10.40;;;7.78;;
8050;SDS011;4068;42.158;24.732;2023-07-28T04:15:10;12.40;;;8.25;;
8050;SDS011;4068;42.158;24.732;2023-07-28T04:17:35;14.27;;;8.63;;
8050;SDS011;4068;42.158;24.732;2023-07-28T04:20:00;10.48;;;7.82;;
8050;SDS011;4068;42.158;24.732;2023-07-28T04:22:26;9.57;;;7.72;;
8050;SDS011;4068;42.158;24.732;2023-07-28T04:24:51;15.35;;;7.30;;
8050;SDS011;4068;42.158;24.732;2023-07-28T04:27:18;10.93;;;8.05;;
8050;SDS011;4068;42.158;24.732;2023-07-28T04:29:43;9.52;;;6.90;;
8050;SDS011;4068;42.158;24.732;2023-07-28T04:32:09;11.05;;;6.35;;
8050;SDS011;4068;42.158;24.732;2023-07-28T04:34:34;8.40;;;6.70;;
8050;SDS011;4068;42.158;24.732;2023-07-28T04:37:00;10.40;;;7.15;;
8050;SDS011;4068;42.158;24.732;2023-07-28T04:39:26;8.63;;;6.18;;
8050;SDS011;4068;42.158;24.732;2023-07-28T04:41:51;9.20;;;7.07;;
8050;SDS011;4068;42.158;24.732;2023-07-28T04:44:17;10.63;;;6.75;;
8050;SDS011;4068;42.158;24.732;2023-07-28T04:46:43;16.52;;;7.40;;
8050;SDS011;4068;42.158;24.732;2023-07-28T04:49:08;10.70;;;7.05;;
8050;SDS011;4068;42.158;24.732;2023-07-28T04:51:34;12.23;;;6.40;;
8050;SDS011;4068;42.158;24.732;2023-07-28T04:53:59;10.23;;;6.75;;
8050;SDS011;4068;42.158;24.732;2023-07-28T04:56:25;9.88;;;6.47;;
8050;SDS011;4068;42.158;24.732;2023-07-28T04:58:50;10.93;;;7.18;;
8050;SDS011;4068;42.158;24.732;2023-07-28T05:01:15;10.90;;;7.15;;
8050;SDS011;4068;42.158;24.732;2023-07-28T05:03:41;11.35;;;7.20;;
8050;SDS011;4068;42.158;24.732;2023-07-28T05:06:06;9.65;;;6.38;;
8050;SDS011;4068;42.158;24.732;2023-07-28T05:08:32;9.18;;;6.07;;
8050;SDS011;4068;42.158;24.732;2023-07-28T05:10:57;13.65;;;5.72;;
8050;SDS011;4068;42.158;24.732;2023-07-28T05:13:23;7.75;;;5.47;;
8050;SDS011;4068;42.158;24.732;2023-07-28T05:15:48;6.78;;;5.50;;
8050;SDS011;4068;42.158;24.732;2023-07-28T05:18:14;7.68;;;4.95;;
8050;SDS011;4068;42.158;24.732;2023-07-28T05:20:39;6.57;;;5.30;;
8050;SDS011;4068;42.158;24.732;2023-07-28T05:23:04;7.63;;;5.22;;
8050;SDS011;4068;42.158;24.732;2023-07-28T05:25:30;8.18;;;4.32;;
8050;SDS011;4068;42.158;24.732;2023-07-28T05:30:39;5.72;;;4.68;;
8050;SDS011;4068;42.158;24.732;2023-07-28T05:33:05;4.72;;;4.32;;
8050;SDS011;4068;42.158;24.732;2023-07-28T05:35:30;8.27;;;4.43;;
8050;SDS011;4068;42.158;24.732;2023-07-28T05:37:55;5.10;;;4.18;;
8050;SDS011;4068;42.158;24.732;2023-07-28T05:40:21;8.27;;;4.15;;
8050;SDS011;4068;42.158;24.732;2023-07-28T05:42:46;5.15;;;3.97;;
8050;SDS011;4068;42.158;24.732;2023-07-28T05:45:12;4.20;;;3.80;;
8050;SDS011;4068;42.158;24.732;2023-07-28T05:47:37;4.93;;;4.00;;
8050;SDS011;4068;42.158;24.732;2023-07-28T05:50:03;7.43;;;3.92;;
8050;SDS011;4068;42.158;24.732;2023-07-28T05:52:29;6.00;;;4.15;;
8050;SDS011;4068;42.158;24.732;2023-07-28T05:54:55;7.30;;;4.80;;
8050;SDS011;4068;42.158;24.732;2023-07-28T05:57:20;5.55;;;4.20;;
8050;SDS011;4068;42.158;24.732;2023-07-28T05:59:46;7.35;;;3.80;;
8050;SDS011;4068;42.158;24.732;2023-07-28T06:02:11;5.30;;;3.88;;
8050;SDS011;4068;42.158;24.732;2023-07-28T06:04:37;6.22;;;3.97;;
8050;SDS011;4068;42.158;24.732;2023-07-28T06:07:02;9.07;;;4.75;;
8050;SDS011;4068;42.158;24.732;2023-07-28T06:09:28;9.25;;;5.22;;
8050;SDS011;4068;42.158;24.732;2023-07-28T06:11:53;5.00;;;4.43;;
8050;SDS011;4068;42.158;24.732;2023-07-28T06:14:18;12.45;;;5.93;;
8050;SDS011;4068;42.158;24.732;2023-07-28T06:16:44;10.93;;;5.43;;
8050;SDS011;4068;42.158;24.732;2023-07-28T06:19:10;6.32;;;4.35;;
8050;SDS011;4068;42.158;24.732;2023-07-28T06:21:36;6.25;;;4.30;;
8050;SDS011;4068;42.158;24.732;2023-07-28T06:24:01;4.75;;;3.92;;
8050;SDS011;4068;42.158;24.732;2023-07-28T06:26:27;5.22;;;3.65;;
8050;SDS011;4068;42.158;24.732;2023-07-28T06:28:52;4.88;;;3.40;;
8050;SDS011;4068;42.158;24.732;2023-07-28T06:31:17;7.18;;;4.28;;
8050;SDS011;4068;42.158;24.732;2023-07-28T06:33:43;6.30;;;4.20;;
8050;SDS011;4068;42.158;24.732;2023-07-28T06:36:08;4.47;;;3.60;;
8050;SDS011;4068;42.158;24.732;2023-07-28T06:38:34;8.43;;;3.97;;
8050;SDS011;4068;42.158;24.732;2023-07-28T06:40:59;8.02;;;4.38;;
8050;SDS011;4068;42.158;24.732;2023-07-28T06:43:25;13.30;;;4.35;;
8050;SDS011;4068;42.158;24.732;2023-07-28T06:45:52;5.97;;;4.35;;
8050;SDS011;4068;42.158;24.732;2023-07-28T06:48:18;5.93;;;3.53;;
8050;SDS011;4068;42.158;24.732;2023-07-28T06:50:43;3.78;;;3.38;;
8050;SDS011;4068;42.158;24.732;2023-07-28T06:53:09;3.47;;;2.88;;
8050;SDS011;4068;42.158;24.732;2023-07-28T06:55:34;8.77;;;3.13;;
8050;SDS011;4068;42.158;24.732;2023-07-28T06:58:00;14.05;;;4.75;;
8050;SDS011;4068;42.158;24.732;2023-07-28T07:00:26;5.65;;;3.78;;
8050;SDS011;4068;42.158;24.732;2023-07-28T07:02:51;3.85;;;2.80;;
8050;SDS011;4068;42.158;24.732;2023-07-28T07:05:16;6.38;;;3.20;;
8050;SDS011;4068;42.158;24.732;2023-07-28T07:07:42;3.42;;;2.72;;
8050;SDS011;4068;42.158;24.732;2023-07-28T07:10:07;2.88;;;2.55;;
8050;SDS011;4068;42.158;24.732;2023-07-28T07:12:34;6.03;;;2.60;;
8050;SDS011;4068;42.158;24.732;2023-07-28T07:14:59;4.68;;;2.70;;
8050;SDS011;4068;42.158;24.732;2023-07-28T07:17:25;2.78;;;2.58;;
8050;SDS011;4068;42.158;24.732;2023-07-28T07:19:51;3.70;;;3.03;;
8050;SDS011;4068;42.158;24.732;2023-07-28T07:22:16;2.45;;;2.25;;
8050;SDS011;4068;42.158;24.732;2023-07-28T07:24:42;4.80;;;2.47;;
8050;SDS011;4068;42.158;24.732;2023-07-28T07:27:07;5.35;;;2.78;;
8050;SDS011;4068;42.158;24.732;2023-07-28T07:29:36;6.93;;;2.42;;
8050;SDS011;4068;42.158;24.732;2023-07-28T07:32:03;3.63;;;2.50;;
8050;SDS011;4068;42.158;24.732;2023-07-28T07:34:30;3.28;;;2.42;;
8050;SDS011;4068;42.158;24.732;2023-07-28T07:36:55;2.50;;;2.30;;
8050;SDS011;4068;42.158;24.732;2023-07-28T07:39:22;3.20;;;2.25;;
8050;SDS011;4068;42.158;24.732;2023-07-28T07:41:47;4.22;;;2.35;;
8050;SDS011;4068;42.158;24.732;2023-07-28T07:44:12;5.68;;;2.50;;
8050;SDS011;4068;42.158;24.732;2023-07-28T07:46:38;2.70;;;2.50;;
8050;SDS011;4068;42.158;24.732;2023-07-28T07:49:03;3.50;;;2.42;;
8050;SDS011;4068;42.158;24.732;2023-07-28T07:51:30;4.03;;;2.35;;
8050;SDS011;4068;42.158;24.732;2023-07-28T07:53:56;3.70;;;2.40;;
8050;SDS011;4068;42.158;24.732;2023-07-28T07:56:21;4.93;;;2.35;;
8050;SDS011;4068;42.158;24.732;2023-07-28T07:58:47;2.47;;;2.28;;
8050;SDS011;4068;42.158;24.732;2023-07-28T08:01:12;2.95;;;2.65;;
8050;SDS011;4068;42.158;24.732;2023-07-28T08:03:38;4.00;;;3.50;;
8050;SDS011;4068;42.158;24.732;2023-07-28T08:06:04;3.10;;;2.80;;
8050;SDS011;4068;42.158;24.732;2023-07-28T08:08:30;4.32;;;2.33;;
8050;SDS011;4068;42.158;24.732;2023-07-28T08:10:56;4.80;;;2.47;;
8050;SDS011;4068;42.158;24.732;2023-07-28T08:13:21;2.80;;;2.47;;
8050;SDS011;4068;42.158;24.732;2023-07-28T08:15:47;4.70;;;2.55;;
8050;SDS011;4068;42.158;24.732;2023-07-28T08:18:12;3.92;;;2.25;;
8050;SDS011;4068;42.158;24.732;2023-07-28T08:20:38;2.55;;;2.35;;
8050;SDS011;4068;42.158;24.732;2023-07-28T08:23:04;3.90;;;2.53;;
8050;SDS011;4068;42.158;24.732;2023-07-28T08:25:29;4.47;;;2.30;;
8050;SDS011;4068;42.158;24.732;2023-07-28T08:27:55;2.90;;;1.90;;
8050;SDS011;4068;42.158;24.732;2023-07-28T08:30:20;5.22;;;2.50;;
8050;SDS011;4068;42.158;24.732;2023-07-28T08:32:46;2.15;;;1.95;;
8050;SDS011;4068;42.158;24.732;2023-07-28T08:35:11;3.28;;;2.20;;
8050;SDS011;4068;42.158;24.732;2023-07-28T08:37:37;4.72;;;2.72;;
8050;SDS011;4068;42.158;24.732;2023-07-28T08:40:02;3.05;;;2.40;;
8050;SDS011;4068;42.158;24.732;2023-07-28T08:42:34;4.47;;;2.50;;
8050;SDS011;4068;42.158;24.732;2023-07-28T08:45:02;4.47;;;2.22;;
8050;SDS011;4068;42.158;24.732;2023-07-28T08:47:29;2.65;;;2.20;;
8050;SDS011;4068;42.158;24.732;2023-07-28T08:49:55;2.72;;;2.33;;
8050;SDS011;4068;42.158;24.732;2023-07-28T08:52:22;3.05;;;2.30;;
8050;SDS011;4068;42.158;24.732;2023-07-28T08:54:49;3.55;;;2.42;;
8050;SDS011;4068;42.158;24.732;2023-07-28T08:57:14;2.42;;;1.88;;
8050;SDS011;4068;42.158;24.732;2023-07-28T08:59:40;2.40;;;2.20;;
8050;SDS011;4068;42.158;24.732;2023-07-28T09:02:13;2.38;;;2.17;;
8050;SDS011;4068;42.158;24.732;2023-07-28T09:04:40;2.15;;;1.95;;
8050;SDS011;4068;42.158;24.732;2023-07-28T09:07:06;3.97;;;2.30;;
8050;SDS011;4068;42.158;24.732;2023-07-28T09:09:32;2.40;;;2.20;;
8050;SDS011;4068;42.158;24.732;2023-07-28T09:11:59;2.50;;;2.08;;
8050;SDS011;4068;42.158;24.732;2023-07-28T09:14:25;6.57;;;2.00;;
8050;SDS011;4068;42.158;24.732;2023-07-28T09:16:51;3.60;;;2.88;;
8050;SDS011;4068;42.158;24.732;2023-07-28T09:19:19;5.10;;;2.60;;
8050;SDS011;4068;42.158;24.732;2023-07-28T09:21:45;3.40;;;1.80;;
8050;SDS011;4068;42.158;24.732;2023-07-28T09:24:21;4.40;;;2.33;;
8050;SDS011;4068;42.158;24.732;2023-07-28T09:26:47;2.78;;;2.50;;
8050;SDS011;4068;42.158;24.732;2023-07-28T09:29:14;2.05;;;1.95;;
8050;SDS011;4068;42.158;24.732;2023-07-28T09:31:42;2.63;;;2.35;;
8050;SDS011;4068;42.158;24.732;2023-07-28T09:34:08;2.08;;;1.98;;
8050;SDS011;4068;42.158;24.732;2023-07-28T09:36:35;2.25;;;2.05;;
8050;SDS011;4068;42.158;24.732;2023-07-28T09:39:03;2.80;;;2.58;;
8050;SDS011;4068;42.158;24.732;2023-07-28T09:41:29;3.67;;;2.40;;
8050;SDS011;4068;42.158;24.732;2023-07-28T09:43:55;4.72;;;2.50;;
8050;SDS011;4068;42.158;24.732;2023-07-28T09:46:22;13.13;;;2.40;;
8050;SDS011;4068;42.158;24.732;2023-07-28T09:48:49;2.15;;;1.95;;
8050;SDS011;4068;42.158;24.732;2023-07-28T09:51:21;3.45;;;2.05;;
8050;SDS011;4068;42.158;24.732;2023-07-28T09:53:56;3.05;;;2.17;;
8050;SDS011;4068;42.158;24.732;2023-07-28T09:56:30;5.55;;;2.00;;
8050;SDS011;4068;42.158;24.732;2023-07-28T09:58:56;3.25;;;2.20;;
8050;SDS011;4068;42.158;24.732;2023-07-28T10:01:23;2.40;;;2.20;;
8050;SDS011;4068;42.158;24.732;2023-07-28T10:03:49;2.55;;;2.13;;
8050;SDS011;4068;42.158;24.732;2023-07-28T10:06:15;4.30;;;2.20;;
8050;SDS011;4068;42.158;24.732;2023-07-28T10:08:42;2.88;;;2.47;;
8050;SDS011;4068;42.158;24.732;2023-07-28T10:11:09;3.10;;;2.00;;
8050;SDS011;4068;42.158;24.732;2023-07-28T10:13:40;2.65;;;2.05;;
8050;SDS011;4068;42.158;24.732;2023-07-28T10:16:07;2.70;;;2.20;;
8050;SDS011;4068;42.158;24.732;2023-07-28T10:18:34;4.95;;;2.10;;
8050;SDS011;4068;42.158;24.732;2023-07-28T10:21:08;2.65;;;2.17;;
8050;SDS011;4068;42.158;24.732;2023-07-28T10:23:38;2.75;;;2.03;;
8050;SDS011;4068;42.158;24.732;2023-07-28T10:26:04;3.13;;;1.98;;
8050;SDS011;4068;42.158;24.732;2023-07-28T10:28:36;2.20;;;2.03;;
8050;SDS011;4068;42.158;24.732;2023-07-28T10:31:06;3.30;;;1.95;;
8050;SDS011;4068;42.158;24.732;2023-07-28T10:33:36;2.58;;;2.38;;
8050;SDS011;4068;42.158;24.732;2023-07-28T10:36:39;3.33;;;2.10;;
8050;SDS011;4068;42.158;24.732;2023-07-28T10:41:34;2.35;;;2.08;;
8050;SDS011;4068;42.158;24.732;2023-07-28T10:44:00;2.80;;;2.20;;
8050;SDS011;4068;42.158;24.732;2023-07-28T10:46:27;2.03;;;1.85;;
8050;SDS011;4068;42.158;24.732;2023-07-28T10:48:52;3.60;;;2.53;;
8050;SDS011;4068;42.158;24.732;2023-07-28T10:51:22;2.60;;;2.38;;
8050;SDS011;4068;42.158;24.732;2023-07-28T10:53:50;2.03;;;1.88;;
8050;SDS011;4068;42.158;24.732;2023-07-28T10:56:17;2.08;;;1.98;;
8050;SDS011;4068;42.158;24.732;2023-07-28T10:58:43;2.30;;;2.10;;
8050;SDS011;4068;42.158;24.732;2023-07-28T11:01:09;2.10;;;1.90;;
8050;SDS011;4068;42.158;24.732;2023-07-28T11:03:34;3.25;;;1.90;;
8050;SDS011;4068;42.158;24.732;2023-07-28T11:06:00;2.75;;;2.20;;
8050;SDS011;4068;42.158;24.732;2023-07-28T11:08:26;2.92;;;2.20;;
8050;SDS011;4068;42.158;24.732;2023-07-28T11:10:51;1.90;;;1.80;;
8050;SDS011;4068;42.158;24.732;2023-07-28T11:13:17;3.35;;;2.00;;
8050;SDS011;4068;42.158;24.732;2023-07-28T11:15:42;2.17;;;1.85;;
8050;SDS011;4068;42.158;24.732;2023-07-28T11:18:08;2.08;;;1.88;;
8050;SDS011;4068;42.158;24.732;2023-07-28T11:20:34;2.42;;;2.08;;
8050;SDS011;4068;42.158;24.732;2023-07-28T11:23:03;2.65;;;2.00;;
8050;SDS011;4068;42.158;24.732;2023-07-28T11:25:30;2.35;;;1.88;;
8050;SDS011;4068;42.158;24.732;2023-07-28T11:27:57;2.08;;;1.88;;
8050;SDS011;4068;42.158;24.732;2023-07-28T11:30:23;2.92;;;2.45;;
8050;SDS011;4068;42.158;24.732;2023-07-28T11:32:51;3.30;;;2.63;;
8050;SDS011;4068;42.158;24.732;2023-07-28T11:35:18;4.65;;;3.65;;
8050;SDS011;4068;42.158;24.732;2023-07-28T11:37:48;3.80;;;3.10;;
8050;SDS011;4068;42.158;24.732;2023-07-28T11:40:16;2.15;;;2.03;;
8050;SDS011;4068;42.158;24.732;2023-07-28T11:45:15;2.30;;;2.10;;
8050;SDS011;4068;42.158;24.732;2023-07-28T11:47:59;1.85;;;1.75;;
8050;SDS011;4068;42.158;24.732;2023-07-28T11:50:31;4.57;;;2.00;;
8050;SDS011;4068;42.158;24.732;2023-07-28T11:53:00;2.88;;;2.15;;
8050;SDS011;4068;42.158;24.732;2023-07-28T11:55:26;1.98;;;1.88;;
8050;SDS011;4068;42.158;24.732;2023-07-28T11:57:52;2.67;;;2.10;;
8050;SDS011;4068;42.158;24.732;2023-07-28T12:00:18;2.35;;;1.90;;
8050;SDS011;4068;42.158;24.732;2023-07-28T12:02:59;2.45;;;2.10;;
8050;SDS011;4068;42.158;24.732;2023-07-28T12:05:26;4.78;;;2.45;;
8050;SDS011;4068;42.158;24.732;2023-07-28T12:07:52;2.60;;;2.40;;
8050;SDS011;4068;42.158;24.732;2023-07-28T12:10:18;5.28;;;2.88;;
8050;SDS011;4068;42.158;24.732;2023-07-28T12:12:45;7.00;;;2.40;;
8050;SDS011;4068;42.158;24.732;2023-07-28T12:15:24;2.47;;;1.90;;
8050;SDS011;4068;42.158;24.732;2023-07-28T12:18:09;2.15;;;1.95;;
8050;SDS011;4068;42.158;24.732;2023-07-28T12:20:42;2.20;;;2.00;;
8050;SDS011;4068;42.158;24.732;2023-07-28T12:23:12;2.60;;;2.20;;
8050;SDS011;4068;42.158;24.732;2023-07-28T12:25:40;4.82;;;2.35;;
8050;SDS011;4068;42.158;24.732;2023-07-28T12:28:06;2.47;;;2.28;;
8050;SDS011;4068;42.158;24.732;2023-07-28T12:30:32;3.05;;;2.35;;
8050;SDS011;4068;42.158;24.732;2023-07-28T12:32:58;6.85;;;2.85;;
8050;SDS011;4068;42.158;24.732;2023-07-28T12:35:24;3.80;;;1.73;;
8050;SDS011;4068;42.158;24.732;2023-07-28T12:37:51;4.15;;;2.28;;
8050;SDS011;4068;42.158;24.732;2023-07-28T12:40:17;2.50;;;2.30;;
8050;SDS011;4068;42.158;24.732;2023-07-28T12:42:47;3.65;;;2.10;;
8050;SDS011;4068;42.158;24.732;2023-07-28T12:45:13;5.18;;;3.92;;
8050;SDS011;4068;42.158;24.732;2023-07-28T12:47:39;2.92;;;2.50;;
8050;SDS011;4068;42.158;24.732;2023-07-28T12:50:05;3.92;;;3.30;;
8050;SDS011;4068;42.158;24.732;2023-07-28T12:52:33;4.47;;;2.90;;
8050;SDS011;4068;42.158;24.732;2023-07-28T12:54:59;2.50;;;2.30;;
8050;SDS011;4068;42.158;24.732;2023-07-28T12:57:24;2.63;;;2.42;;
8050;SDS011;4068;42.158;24.732;2023-07-28T12:59:50;2.25;;;2.00;;
8050;SDS011;4068;42.158;24.732;2023-07-28T13:02:16;4.10;;;2.35;;
8050;SDS011;4068;42.158;24.732;2023-07-28T13:04:42;3.13;;;2.45;;
8050;SDS011;4068;42.158;24.732;2023-07-28T13:07:07;3.35;;;2.85;;
8050;SDS011;4068;42.158;24.732;2023-07-28T13:09:33;3.13;;;2.25;;
8050;SDS011;4068;42.158;24.732;2023-07-28T13:11:58;3.13;;;1.98;;
8050;SDS011;4068;42.158;24.732;2023-07-28T13:14:24;2.40;;;2.20;;
8050;SDS011;4068;42.158;24.732;2023-07-28T13:16:49;4.30;;;2.38;;
8050;SDS011;4068;42.158;24.732;2023-07-28T13:19:15;3.53;;;2.50;;
8050;SDS011;4068;42.158;24.732;2023-07-28T13:21:41;5.47;;;3.00;;
8050;SDS011;4068;42.158;24.732;2023-07-28T13:24:06;4.32;;;2.80;;
8050;SDS011;4068;42.158;24.732;2023-07-28T13:26:31;2.80;;;2.30;;
8050;SDS011;4068;42.158;24.732;2023-07-28T13:28:57;2.45;;;2.10;;
8050;SDS011;4068;42.158;24.732;2023-07-28T13:31:24;2.00;;;1.90;;
8050;SDS011;4068;42.158;24.732;2023-07-28T13:33:49;4.78;;;2.10;;
8050;SDS011;4068;42.158;24.732;2023-07-28T13:36:15;4.43;;;2.60;;
8050;SDS011;4068;42.158;24.732;2023-07-28T13:38:40;3.70;;;2.80;;
8050;SDS011;4068;42.158;24.732;2023-07-28T13:41:06;4.25;;;2.85;;
8050;SDS011;4068;42.158;24.732;2023-07-28T13:43:32;2.72;;;2.53;;
8050;SDS011;4068;42.158;24.732;2023-07-28T13:46:00;3.35;;;3.03;;
8050;SDS011;4068;42.158;24.732;2023-07-28T13:48:26;2.58;;;2.20;;
8050;SDS011;4068;42.158;24.732;2023-07-28T13:50:51;6.47;;;2.42;;
8050;SDS011;4068;42.158;24.732;2023-07-28T13:53:17;2.88;;;2.25;;
8050;SDS011;4068;42.158;24.732;2023-07-28T13:55:42;5.28;;;2.80;;
8050;SDS011;4068;42.158;24.732;2023-07-28T13:58:08;5.72;;;4.50;;
8050;SDS011;4068;42.158;24.732;2023-07-28T14:00:33;3.30;;;2.58;;
8050;SDS011;4068;42.158;24.732;2023-07-28T14:02:59;3.22;;;2.15;;
8050;SDS011;4068;42.158;24.732;2023-07-28T14:05:24;7.05;;;2.97;;
8050;SDS011;4068;42.158;24.732;2023-07-28T14:07:49;2.65;;;2.33;;
8050;SDS011;4068;42.158;24.732;2023-07-28T14:10:15;3.17;;;2.35;;
8050;SDS011;4068;42.158;24.732;2023-07-28T14:12:40;4.80;;;2.42;;
8050;SDS011;4068;42.158;24.732;2023-07-28T14:15:06;5.78;;;2.88;;
8050;SDS011;4068;42.158;24.732;2023-07-28T14:17:33;3.72;;;2.72;;
8050;SDS011;4068;42.158;24.732;2023-07-28T14:19:58;2.47;;;2.28;;
8050;SDS011;4068;42.158;24.732;2023-07-28T14:22:24;3.63;;;2.22;;
8050;SDS011;4068;42.158;24.732;2023-07-28T14:24:49;2.67;;;2.28;;
8050;SDS011;4068;42.158;24.732;2023-07-28T14:27:15;4.68;;;3.05;;
8050;SDS011;4068;42.158;24.732;2023-07-28T14:29:41;2.72;;;2.28;;
8050;SDS011;4068;42.158;24.732;2023-07-28T14:32:06;3.65;;;2.20;;
8050;SDS011;4068;42.158;24.732;2023-07-28T14:34:32;2.97;;;2.50;;
8050;SDS011;4068;42.158;24.732;2023-07-28T14:37:00;6.35;;;2.50;;
8050;SDS011;4068;42.158;24.732;2023-07-28T14:39:28;3.45;;;2.60;;
8050;SDS011;4068;42.158;24.732;2023-07-28T14:41:54;3.75;;;2.60;;
8050;SDS011;4068;42.158;24.732;2023-07-28T14:44:19;5.03;;;2.80;;
8050;SDS011;4068;42.158;24.732;2023-07-28T14:46:44;4.05;;;2.40;;
8050;SDS011;4068;42.158;24.732;2023-07-28T14:49:11;4.45;;;2.17;;
8050;SDS011;4068;42.158;24.732;2023-07-28T14:51:36;3.35;;;2.38;;
8050;SDS011;4068;42.158;24.732;2023-07-28T14:54:02;5.43;;;2.25;;
8050;SDS011;4068;42.158;24.732;2023-07-28T14:56:27;3.72;;;2.33;;
8050;SDS011;4068;42.158;24.732;2023-07-28T14:58:53;2.88;;;2.38;;
8050;SDS011;4068;42.158;24.732;2023-07-28T15:01:20;3.78;;;2.60;;
8050;SDS011;4068;42.158;24.732;2023-07-28T15:03:45;4.15;;;2.33;;
8050;SDS011;4068;42.158;24.732;2023-07-28T15:06:11;4.40;;;2.55;;